Time;durP1;ratioP1;P1;durP2;ratioP2;P2;SDS_P1;SDS_P2;PMS_P1;PMS_P2;Temp;Humidity;BMP_temperature;BMP_pressure;BME280_temperature;BME280_humidity;BME280_pressure;Samples;Min_cycle;Max_cycle;Signal;HPM_P1;HPM_P2
2024/01/27 00:00:55;;;;;;;19.13;5.20;;;4.40;58.80;;;;;;5096423;28;20398;-77
2024/01/27 00:03:20;;;;;;;19.60;5.22;;;4.30;59.10;;;;;;5092700;28;20386;-77
2024/01/27 00:05:46;;;;;;;17.33;5.67;;;4.30;59.30;;;;;;5098229;28;20748;-75
2024/01/27 00:08:12;;;;;;;17.73;4.80;;;4.30;59.30;;;;;;5094163;28;21009;-77
2024/01/27 00:10:37;;;;;;;22.73;5.40;;;4.20;59.40;;;;;;5092202;28;20386;-76
2024/01/27 00:13:03;;;;;;;16.83;5.17;;;4.20;59.90;;;;;;5092433;28;20389;-76
2024/01/27 00:15:28;;;;;;;22.83;5.63;;;4.20;60.10;;;;;;5093834;28;20475;-76
2024/01/27 00:17:54;;;;;;;22.23;4.87;;;4.10;60.30;;;;;;5091555;28;20386;-76
2024/01/27 00:20:20;;;;;;;19.90;5.00;;;4.20;60.30;;;;;;5091957;28;21030;-76
2024/01/27 00:22:45;;;;;;;20.58;5.15;;;4.20;59.60;;;;;;5092059;28;20474;-76
2024/01/27 00:25:11;;;;;;;20.42;4.60;;;4.20;59.90;;;;;;5091681;28;20396;-76
2024/01/27 00:27:36;;;;;;;21.80;4.88;;;4.20;59.50;;;;;;5091505;28;20714;-77
2024/01/27 00:30:02;;;;;;;22.52;5.53;;;4.10;60.10;;;;;;5091105;28;20404;-76
2024/01/27 00:32:27;;;;;;;16.85;4.90;;;4.10;60.40;;;;;;5096903;28;20396;-73
2024/01/27 00:34:53;;;;;;;19.20;4.93;;;4.10;60.90;;;;;;5100112;28;20393;-75
2024/01/27 00:37:19;;;;;;;21.97;5.43;;;4.00;60.90;;;;;;5092273;28;20752;-76
2024/01/27 00:39:45;;;;;;;22.20;5.45;;;3.80;62.70;;;;;;5111148;28;20400;-76
2024/01/27 00:42:10;;;;;;;23.90;6.00;;;3.80;63.50;;;;;;5112677;28;20394;-75
2024/01/27 00:44:36;;;;;;;32.23;6.60;;;3.80;64.60;;;;;;5109671;28;20381;-75
2024/01/27 00:47:03;;;;;;;26.45;6.68;;;3.80;65.10;;;;;;5096777;28;20505;-76
2024/01/27 00:49:28;;;;;;;31.88;7.50;;;3.70;65.00;;;;;;5117418;28;20384;-76
2024/01/27 00:51:54;;;;;;;19.85;7.60;;;3.80;65.80;;;;;;5117519;28;20379;-75
2024/01/27 00:54:19;;;;;;;21.98;6.50;;;3.70;65.50;;;;;;5119306;28;20411;-75
2024/01/27 00:56:45;;;;;;;18.40;5.32;;;3.80;66.20;;;;;;5115930;28;20561;-77
2024/01/27 00:59:10;;;;;;;27.98;5.93;;;3.80;65.00;;;;;;5114998;28;20380;-76
2024/01/27 01:01:36;;;;;;;23.58;5.70;;;3.90;64.40;;;;;;5115273;28;20786;-76
2024/01/27 01:04:01;;;;;;;20.63;6.40;;;3.90;64.20;;;;;;5115471;28;20774;-76
2024/01/27 01:06:27;;;;;;;20.30;6.10;;;3.90;64.40;;;;;;5116059;28;20447;-77
2024/01/27 01:08:52;;;;;;;28.13;6.70;;;3.80;64.00;;;;;;5115858;28;20384;-76
2024/01/27 01:11:18;;;;;;;21.73;6.10;;;3.70;65.70;;;;;;5115555;28;20384;-75
2024/01/27 01:13:43;;;;;;;24.00;7.17;;;3.50;66.80;;;;;;5115664;28;20472;-77
2024/01/27 01:16:09;;;;;;;19.53;6.50;;;3.40;68.90;;;;;;5115731;28;20395;-77
2024/01/27 01:18:35;;;;;;;27.70;7.87;;;3.40;70.10;;;;;;5115557;28;20738;-75
2024/01/27 01:21:00;;;;;;;22.33;6.30;;;3.40;70.90;;;;;;5115332;28;20473;-75
2024/01/27 01:23:26;;;;;;;23.40;6.53;;;3.50;69.20;;;;;;5116591;28;20380;-75
2024/01/27 01:25:51;;;;;;;19.50;6.27;;;3.40;70.10;;;;;;5102001;28;20400;-76
2024/01/27 01:28:17;;;;;;;24.63;7.23;;;3.20;71.30;;;;;;5116619;28;20385;-77
2024/01/27 01:30:42;;;;;;;24.43;8.47;;;3.20;72.40;;;;;;5115124;28;20383;-75
2024/01/27 01:33:09;;;;;;;33.28;13.00;;;3.20;73.30;;;;;;5115001;28;20384;-76
2024/01/27 01:35:35;;;;;;;23.25;5.85;;;3.30;74.70;;;;;;5115374;28;20380;-75
2024/01/27 01:38:01;;;;;;;22.38;7.80;;;3.40;71.70;;;;;;5114807;28;20728;-76
2024/01/27 01:40:26;;;;;;;22.50;6.10;;;3.40;71.20;;;;;;5115072;28;20400;-75
2024/01/27 01:42:52;;;;;;;21.53;5.63;;;3.30;71.80;;;;;;5114890;28;20380;-75
2024/01/27 01:45:18;;;;;;;23.50;6.20;;;3.20;72.30;;;;;;5115659;28;20375;-76
2024/01/27 01:47:44;;;;;;;19.63;6.50;;;3.20;73.80;;;;;;5115406;28;20475;-75
2024/01/27 01:50:11;;;;;;;27.63;7.50;;;3.20;73.40;;;;;;5115228;28;20380;-74
2024/01/27 01:52:38;;;;;;;24.70;6.83;;;3.20;73.70;;;;;;5115168;28;20552;-75
2024/01/27 01:55:04;;;;;;;25.05;7.63;;;3.20;73.40;;;;;;5114989;28;20398;-77
2024/01/27 01:57:31;;;;;;;26.63;8.10;;;3.10;74.50;;;;;;5114369;28;20393;-76
2024/01/27 01:59:56;;;;;;;25.17;7.18;;;3.00;76.00;;;;;;5114395;28;20404;-76
2024/01/27 02:02:22;;;;;;;29.00;7.37;;;3.10;75.80;;;;;;5115037;28;20376;-76
2024/01/27 02:04:47;;;;;;;25.93;8.30;;;2.90;76.80;;;;;;5114695;28;20380;-76
2024/01/27 02:07:14;;;;;;;19.93;6.30;;;3.10;78.00;;;;;;5115462;28;20377;-77
2024/01/27 02:09:39;;;;;;;21.58;7.05;;;2.90;77.10;;;;;;5115179;28;20914;-75
2024/01/27 02:12:05;;;;;;;26.90;8.80;;;2.90;78.00;;;;;;5115183;28;20388;-77
2024/01/27 02:14:31;;;;;;;24.15;7.15;;;2.80;78.90;;;;;;5115252;28;20525;-76
2024/01/27 02:16:57;;;;;;;23.83;7.10;;;2.70;79.90;;;;;;5108773;28;20415;-77
2024/01/27 02:19:23;;;;;;;24.60;8.80;;;2.70;80.70;;;;;;5118490;28;20866;-75
2024/01/27 02:21:48;;;;;;;24.88;9.40;;;2.70;81.70;;;;;;5117525;28;20381;-75
2024/01/27 02:24:14;;;;;;;26.00;7.67;;;2.70;81.80;;;;;;5114959;28;20872;-77
2024/01/27 02:26:40;;;;;;;22.37;8.37;;;2.70;81.80;;;;;;5114189;28;20495;-76
2024/01/27 02:29:05;;;;;;;24.98;8.10;;;2.50;81.90;;;;;;5114399;28;20376;-77
2024/01/27 02:31:31;;;;;;;24.52;7.60;;;2.50;82.30;;;;;;5097759;28;20388;-75
2024/01/27 02:33:57;;;;;;;25.63;6.88;;;2.70;82.70;;;;;;5116869;28;20399;-76
2024/01/27 02:36:22;;;;;;;26.07;7.87;;;2.70;82.00;;;;;;5117995;28;20387;-76
2024/01/27 02:38:48;;;;;;;31.87;9.43;;;2.60;81.80;;;;;;5115376;28;20396;-77
2024/01/27 02:41:14;;;;;;;33.07;10.20;;;2.90;82.50;;;;;;5113815;28;20407;-76
2024/01/27 02:43:40;;;;;;;21.45;7.53;;;2.90;80.80;;;;;;5113864;28;20371;-74
2024/01/27 02:46:10;;;;;;;23.97;7.43;;;2.90;80.30;;;;;;5113711;28;20402;-76
2024/01/27 02:48:35;;;;;;;24.23;7.13;;;2.70;81.40;;;;;;5114055;28;20715;-77
2024/01/27 02:51:04;;;;;;;28.23;8.37;;;2.50;83.00;;;;;;5114163;28;20382;-76
2024/01/27 02:53:30;;;;;;;21.98;8.00;;;2.50;83.60;;;;;;5114020;28;20714;-76
2024/01/27 02:55:56;;;;;;;29.95;8.13;;;2.40;84.50;;;;;;5114141;28;20376;-76
2024/01/27 02:58:22;;;;;;;28.15;9.52;;;2.30;85.40;;;;;;5113748;28;20391;-76
2024/01/27 03:00:47;;;;;;;27.27;8.90;;;2.30;86.50;;;;;;5112994;28;20944;-77
2024/01/27 03:03:13;;;;;;;23.10;8.55;;;2.50;86.90;;;;;;5113521;28;20437;-76
2024/01/27 03:05:38;;;;;;;28.15;7.88;;;2.30;85.50;;;;;;5113484;28;20421;-75
2024/01/27 03:08:05;;;;;;;33.22;7.93;;;2.30;86.40;;;;;;5112616;28;20376;-75
2024/01/27 03:10:31;;;;;;;25.65;8.85;;;2.30;87.00;;;;;;5113830;28;20574;-76
2024/01/27 03:12:57;;;;;;;25.20;9.33;;;2.20;87.10;;;;;;5113823;28;20430;-75
2024/01/27 03:15:22;;;;;;;33.33;9.05;;;2.20;87.50;;;;;;5113840;28;20392;-76
2024/01/27 03:17:48;;;;;;;24.60;7.53;;;2.10;87.90;;;;;;5095311;28;20449;-77
2024/01/27 03:20:13;;;;;;;31.30;9.07;;;2.10;88.70;;;;;;5113655;28;20400;-76
2024/01/27 03:22:41;;;;;;;20.73;8.03;;;2.00;89.00;;;;;;5113644;28;20870;-75
2024/01/27 03:25:08;;;;;;;26.43;7.97;;;2.10;89.20;;;;;;5095607;28;20388;-75
2024/01/27 03:27:34;;;;;;;20.88;7.40;;;2.00;88.90;;;;;;5113452;28;20376;-76
2024/01/27 03:30:04;;;;;;;24.48;8.77;;;2.00;89.50;;;;;;5113308;28;20376;-76
2024/01/27 03:32:33;;;;;;;23.00;8.32;;;2.00;90.10;;;;;;5095591;28;20448;-77
2024/01/27 03:35:02;;;;;;;30.73;8.80;;;2.00;90.40;;;;;;5114013;28;20775;-77
2024/01/27 03:37:27;;;;;;;20.60;7.72;;;2.00;88.90;;;;;;5113015;28;20409;-77
2024/01/27 03:39:53;;;;;;;25.47;8.37;;;2.00;89.70;;;;;;5112480;28;20396;-76
2024/01/27 03:42:19;;;;;;;26.20;8.77;;;1.90;89.40;;;;;;5113054;28;20388;-77
2024/01/27 03:44:44;;;;;;;24.30;8.77;;;1.90;89.80;;;;;;5113054;28;20422;-76
2024/01/27 03:47:10;;;;;;;31.38;9.20;;;1.90;90.20;;;;;;5112619;28;20749;-76
2024/01/27 03:49:35;;;;;;;27.13;9.85;;;1.90;90.60;;;;;;5113068;28;20391;-74
2024/01/27 03:52:01;;;;;;;28.42;9.25;;;1.90;90.80;;;;;;5112899;28;20376;-75
2024/01/27 03:54:26;;;;;;;25.33;7.83;;;1.80;90.50;;;;;;5114589;28;20388;-78
2024/01/27 03:56:54;;;;;;;23.93;8.77;;;1.70;90.90;;;;;;5116788;28;20441;-78
2024/01/27 03:59:19;;;;;;;22.38;8.07;;;1.80;92.50;;;;;;5116108;28;20792;-78
2024/01/27 04:01:45;;;;;;;24.87;8.40;;;1.80;91.40;;;;;;5115055;28;20414;-75
2024/01/27 04:04:10;;;;;;;25.70;9.37;;;1.80;91.20;;;;;;5112287;28;20884;-75
2024/01/27 04:06:40;;;;;;;24.10;7.30;;;1.80;91.40;;;;;;5112717;28;20731;-77
2024/01/27 04:09:08;;;;;;;24.30;8.43;;;1.90;90.60;;;;;;5112960;28;20410;-76
2024/01/27 04:11:34;;;;;;;24.85;8.68;;;1.80;90.30;;;;;;5113101;28;20426;-76
2024/01/27 04:14:01;;;;;;;25.85;8.93;;;1.90;90.90;;;;;;5094195;28;20886;-76
2024/01/27 04:16:27;;;;;;;21.90;7.80;;;1.80;90.30;;;;;;5113036;28;20936;-76
2024/01/27 04:18:52;;;;;;;28.00;7.45;;;1.80;90.10;;;;;;5112101;28;20372;-77
2024/01/27 04:21:18;;;;;;;24.95;8.88;;;1.80;91.10;;;;;;5111814;28;20929;-77
2024/01/27 04:23:43;;;;;;;20.83;6.90;;;1.80;91.60;;;;;;5112485;28;20381;-76
2024/01/27 04:26:10;;;;;;;21.05;7.72;;;1.90;90.00;;;;;;5112080;28;20463;-76
2024/01/27 04:28:36;;;;;;;21.38;8.25;;;1.80;89.20;;;;;;5111822;28;20893;-75
2024/01/27 04:31:02;;;;;;;21.27;8.33;;;1.80;90.10;;;;;;5112264;28;20392;-77
2024/01/27 04:33:27;;;;;;;21.60;7.45;;;1.70;90.70;;;;;;5112399;28;20392;-77
2024/01/27 04:35:53;;;;;;;23.43;7.70;;;1.70;91.50;;;;;;5093790;28;20478;-77
2024/01/27 04:38:19;;;;;;;24.43;7.97;;;1.60;91.60;;;;;;5112373;28;20754;-76
2024/01/27 04:40:45;;;;;;;24.27;9.67;;;1.70;92.30;;;;;;5111919;28;20435;-77
2024/01/27 04:43:14;;;;;;;38.70;7.97;;;1.70;92.50;;;;;;5112386;28;20762;-77
2024/01/27 04:45:40;;;;;;;30.40;8.95;;;1.70;92.50;;;;;;5111783;28;20416;-76
2024/01/27 04:48:05;;;;;;;29.00;9.43;;;1.70;92.10;;;;;;5111865;28;20521;-77
2024/01/27 04:50:31;;;;;;;30.73;9.30;;;1.80;92.10;;;;;;5111996;28;20388;-76
2024/01/27 04:52:56;;;;;;;24.20;7.43;;;1.80;91.00;;;;;;5112155;28;20455;-76
2024/01/27 04:55:22;;;;;;;22.70;7.20;;;1.90;91.00;;;;;;5111798;28;20407;-76
2024/01/27 04:57:47;;;;;;;24.88;7.35;;;1.90;90.70;;;;;;5111897;28;20389;-76
2024/01/27 05:00:14;;;;;;;23.65;7.45;;;1.90;89.30;;;;;;5111646;28;20400;-76
2024/01/27 05:02:40;;;;;;;23.03;7.40;;;1.90;90.10;;;;;;5112681;28;20383;-76
2024/01/27 05:05:07;;;;;;;22.23;8.40;;;1.80;90.30;;;;;;5114780;28;20465;-76
2024/01/27 05:07:32;;;;;;;25.25;9.10;;;1.80;90.40;;;;;;5116671;28;20470;-76
2024/01/27 05:09:58;;;;;;;22.13;7.95;;;1.80;90.70;;;;;;5117472;28;20455;-76
2024/01/27 05:12:23;;;;;;;30.70;9.43;;;1.90;90.10;;;;;;5117186;28;20406;-76
2024/01/27 05:14:49;;;;;;;31.93;9.10;;;1.80;89.90;;;;;;5117468;28;20388;-77
2024/01/27 05:17:15;;;;;;;23.57;8.67;;;1.70;90.50;;;;;;5111999;28;20391;-76
2024/01/27 05:19:40;;;;;;;22.00;8.37;;;1.70;91.20;;;;;;5112089;28;20388;-75
2024/01/27 05:22:06;;;;;;;26.02;8.50;;;1.70;90.60;;;;;;5111850;28;20384;-76
2024/01/27 05:24:31;;;;;;;27.65;8.35;;;1.70;91.10;;;;;;5112513;28;20419;-75
2024/01/27 05:26:57;;;;;;;27.67;9.00;;;1.80;91.00;;;;;;5111744;28;20863;-76
2024/01/27 05:29:23;;;;;;;21.60;7.30;;;1.80;90.00;;;;;;5113136;28;20376;-75
2024/01/27 05:31:49;;;;;;;22.83;8.03;;;1.70;90.30;;;;;;5103282;28;20870;-76
2024/01/27 05:34:15;;;;;;;21.58;7.40;;;1.90;89.70;;;;;;5122803;28;20730;-74
2024/01/27 05:36:40;;;;;;;22.83;8.83;;;1.90;88.60;;;;;;5101322;28;20470;-76
2024/01/27 05:39:06;;;;;;;22.85;8.40;;;1.90;89.00;;;;;;5120334;28;20395;-77
2024/01/27 05:41:32;;;;;;;29.70;7.57;;;1.90;88.10;;;;;;5118203;28;20400;-77
2024/01/27 05:43:58;;;;;;;29.08;8.65;;;1.80;88.60;;;;;;5119494;28;20380;-76
2024/01/27 05:46:27;;;;;;;22.13;8.07;;;1.80;89.20;;;;;;5102645;28;20572;-77
2024/01/27 05:48:53;;;;;;;26.33;7.80;;;1.80;89.70;;;;;;5120110;28;20388;-77
2024/01/27 05:51:23;;;;;;;26.67;8.63;;;1.80;88.70;;;;;;5118479;28;20538;-76
2024/01/27 05:53:49;;;;;;;24.85;9.00;;;1.60;89.90;;;;;;5118634;28;20459;-75
2024/01/27 05:56:15;;;;;;;28.20;9.50;;;1.50;91.20;;;;;;5100856;28;20451;-77
2024/01/27 05:58:40;;;;;;;31.08;8.40;;;1.60;92.00;;;;;;5116702;28;20771;-75
2024/01/27 06:01:08;;;;;;;25.07;8.70;;;1.70;91.30;;;;;;5097577;28;20408;-77
2024/01/27 06:03:35;;;;;;;27.85;8.45;;;1.70;90.80;;;;;;5117678;28;20469;-76
2024/01/27 06:06:01;;;;;;;22.35;8.05;;;1.70;91.30;;;;;;5120637;28;20424;-78
2024/01/27 06:08:27;;;;;;;23.60;7.82;;;1.70;88.40;;;;;;5120716;28;20381;-78
2024/01/27 06:10:52;;;;;;;23.08;8.27;;;1.70;88.20;;;;;;5119622;28;20430;-78
2024/01/27 06:13:18;;;;;;;20.45;7.90;;;1.60;89.70;;;;;;5120375;28;20384;-77
2024/01/27 06:15:43;;;;;;;26.50;8.67;;;1.70;89.70;;;;;;5123706;28;20465;-77
2024/01/27 06:18:09;;;;;;;22.63;7.80;;;1.50;89.70;;;;;;5128511;28;20381;-77
2024/01/27 06:20:34;;;;;;;27.20;8.10;;;1.60;91.20;;;;;;5123559;28;20412;-76
2024/01/27 06:23:00;;;;;;;24.97;7.67;;;1.70;89.40;;;;;;5115627;28;20380;-75
2024/01/27 06:25:25;;;;;;;24.67;8.00;;;1.60;89.40;;;;;;5114967;28;20464;-76
2024/01/27 06:27:51;;;;;;;27.33;7.83;;;1.60;90.40;;;;;;5114502;28;20433;-76
2024/01/27 06:30:17;;;;;;;27.05;8.63;;;1.80;90.40;;;;;;5115871;28;20430;-76
2024/01/27 06:32:43;;;;;;;21.00;8.45;;;1.70;88.00;;;;;;5097211;28;20438;-76
2024/01/27 06:35:09;;;;;;;30.42;8.20;;;1.70;88.60;;;;;;5116459;28;20376;-75
2024/01/27 06:37:35;;;;;;;28.77;8.30;;;1.60;88.80;;;;;;5104722;28;20393;-75
2024/01/27 06:40:00;;;;;;;25.02;8.20;;;1.70;89.40;;;;;;5130410;28;20442;-75
2024/01/27 06:42:26;;;;;;;20.75;7.60;;;1.80;89.10;;;;;;5127522;28;20850;-77
2024/01/27 06:44:52;;;;;;;20.47;7.67;;;1.70;87.60;;;;;;5125620;28;20408;-77
2024/01/27 06:47:17;;;;;;;20.87;7.80;;;1.80;88.10;;;;;;5116496;28;20381;-75
2024/01/27 06:49:43;;;;;;;19.33;7.73;;;1.70;88.00;;;;;;5095536;28;20391;-75
2024/01/27 06:52:08;;;;;;;25.27;8.15;;;1.70;87.70;;;;;;5096034;28;20768;-77
2024/01/27 06:54:36;;;;;;;23.50;7.78;;;1.70;88.10;;;;;;5115443;28;20380;-75
2024/01/27 06:57:01;;;;;;;25.67;8.57;;;1.60;88.40;;;;;;5117011;28;20467;-75
2024/01/27 06:59:27;;;;;;;24.83;8.30;;;1.60;89.20;;;;;;5096568;28;20420;-75
2024/01/27 07:01:52;;;;;;;23.23;9.03;;;1.60;91.20;;;;;;5098740;28;20372;-76
2024/01/27 07:04:18;;;;;;;24.03;9.10;;;1.60;90.00;;;;;;5115236;28;20383;-76
2024/01/27 07:06:44;;;;;;;27.83;9.60;;;1.70;90.30;;;;;;5114320;28;20885;-76
2024/01/27 07:09:10;;;;;;;24.02;9.05;;;1.80;89.50;;;;;;5114423;28;20387;-76
2024/01/27 07:11:36;;;;;;;23.05;8.55;;;1.80;88.90;;;;;;5113640;28;20495;-76
2024/01/27 07:14:03;;;;;;;33.50;8.52;;;1.70;88.50;;;;;;5112957;28;21008;-77
2024/01/27 07:16:28;;;;;;;20.55;7.85;;;1.70;89.20;;;;;;5113035;28;20380;-76
2024/01/27 07:18:54;;;;;;;28.10;8.57;;;1.80;88.80;;;;;;5113083;28;20898;-76
2024/01/27 07:21:20;;;;;;;21.03;8.13;;;1.70;88.30;;;;;;5113163;28;20801;-75
2024/01/27 07:23:45;;;;;;;30.45;8.98;;;1.70;89.60;;;;;;5113674;28;20855;-74
2024/01/27 07:26:11;;;;;;;21.88;8.40;;;1.80;89.10;;;;;;5114067;28;20463;-74
2024/01/27 07:28:38;;;;;;;27.70;8.60;;;1.90;88.10;;;;;;5112694;28;20384;-76
2024/01/27 07:31:05;;;;;;;29.02;9.00;;;1.80;87.90;;;;;;5112429;28;20392;-75
2024/01/27 07:33:30;;;;;;;30.05;9.88;;;1.80;87.90;;;;;;5112976;28;20384;-75
2024/01/27 07:35:56;;;;;;;26.10;8.15;;;1.80;88.30;;;;;;5112708;28;20372;-75
2024/01/27 07:38:22;;;;;;;23.60;8.80;;;1.90;86.50;;;;;;5112898;28;20891;-75
2024/01/27 07:40:48;;;;;;;30.70;8.73;;;1.80;87.70;;;;;;5113072;28;20396;-75
2024/01/27 07:43:13;;;;;;;26.03;8.90;;;1.80;87.40;;;;;;5112826;28;20372;-75
2024/01/27 07:45:39;;;;;;;25.40;9.10;;;1.90;87.00;;;;;;5112026;28;20380;-75
2024/01/27 07:48:05;;;;;;;30.33;9.53;;;2.00;87.10;;;;;;5109485;28;20403;-75
2024/01/27 07:50:30;;;;;;;25.00;9.13;;;1.90;86.90;;;;;;5089809;28;20398;-74
2024/01/27 07:52:56;;;;;;;24.07;9.03;;;2.00;86.80;;;;;;5106932;28;20866;-75
2024/01/27 07:55:22;;;;;;;23.50;8.60;;;1.90;86.60;;;;;;5091613;28;20428;-75
2024/01/27 07:57:47;;;;;;;23.80;8.57;;;2.00;86.90;;;;;;5108346;28;20867;-74
2024/01/27 08:00:13;;;;;;;29.27;9.30;;;2.00;87.60;;;;;;5108715;28;20740;-74
2024/01/27 08:02:39;;;;;;;24.95;8.10;;;2.00;86.40;;;;;;5111686;28;20380;-73
2024/01/27 08:05:05;;;;;;;30.57;9.37;;;2.00;86.60;;;;;;5104271;28;20770;-73
2024/01/27 08:07:32;;;;;;;37.20;8.80;;;2.00;87.20;;;;;;5105896;28;20396;-75
2024/01/27 08:09:57;;;;;;;22.65;8.20;;;2.20;86.50;;;;;;5110383;28;20901;-74
2024/01/27 08:12:23;;;;;;;27.17;8.93;;;2.30;82.80;;;;;;5108587;28;20384;-75
2024/01/27 08:14:48;;;;;;;26.10;8.70;;;2.30;83.70;;;;;;5112716;28;20384;-76
2024/01/27 08:17:14;;;;;;;28.30;8.20;;;2.30;82.50;;;;;;5111980;28;20739;-72
2024/01/27 08:19:40;;;;;;;31.08;9.57;;;2.30;82.20;;;;;;5111335;28;20400;-73
2024/01/27 08:22:05;;;;;;;23.40;8.40;;;2.40;83.40;;;;;;5111517;28;20449;-75
2024/01/27 08:24:31;;;;;;;28.97;9.20;;;2.40;81.60;;;;;;5093611;28;20874;-72
2024/01/27 08:26:57;;;;;;;26.80;9.23;;;2.50;81.10;;;;;;5119756;28;20383;-73
2024/01/27 08:29:23;;;;;;;27.17;8.10;;;2.60;80.30;;;;;;5112799;28;20862;-73
2024/01/27 08:31:49;;;;;;;21.30;8.90;;;2.50;79.80;;;;;;5111402;28;20384;-74
2024/01/27 08:34:14;;;;;;;26.20;9.07;;;2.70;81.00;;;;;;5093693;28;20401;-74
2024/01/27 08:36:40;;;;;;;29.92;8.90;;;2.70;78.20;;;;;;5091082;28;20451;-75
2024/01/27 08:39:07;;;;;;;23.13;8.50;;;2.70;78.30;;;;;;5091615;28;20466;-74
2024/01/27 08:41:33;;;;;;;26.23;9.20;;;2.60;79.20;;;;;;5090679;28;20433;-75
2024/01/27 08:43:59;;;;;;;29.52;10.70;;;2.70;80.10;;;;;;5072547;28;20465;-74
2024/01/27 08:46:25;;;;;;;28.83;9.90;;;2.80;79.30;;;;;;5091184;28;20483;-75
2024/01/27 08:48:50;;;;;;;29.47;9.50;;;3.00;76.80;;;;;;5098948;28;20368;-76
2024/01/27 08:51:16;;;;;;;27.80;11.77;;;2.90;75.10;;;;;;5111006;28;20376;-75
2024/01/27 08:53:48;;;;;;;22.35;10.35;;;3.00;77.50;;;;;;5112030;28;20456;-75
2024/01/27 08:56:17;;;;;;;24.60;8.95;;;3.10;76.10;;;;;;5111648;28;20793;-75
2024/01/27 08:58:44;;;;;;;41.88;10.85;;;3.10;76.30;;;;;;5111327;28;20507;-76
2024/01/27 09:01:12;;;;;;;26.27;8.95;;;3.20;76.00;;;;;;5111195;28;20392;-75
2024/01/27 09:03:39;;;;;;;24.15;8.70;;;3.30;76.20;;;;;;5109433;28;20388;-75
2024/01/27 09:06:05;;;;;;;25.17;9.68;;;3.40;72.70;;;;;;5102592;28;20522;-76
2024/01/27 09:08:30;;;;;;;23.47;11.37;;;3.50;73.90;;;;;;5110955;28;20852;-75
2024/01/27 09:10:56;;;;;;;25.63;8.50;;;3.60;74.80;;;;;;5105717;28;20384;-74
2024/01/27 09:13:21;;;;;;;24.90;8.43;;;3.80;70.20;;;;;;5098787;28;20400;-76
2024/01/27 09:15:48;;;;;;;23.70;8.52;;;3.70;68.90;;;;;;5094820;28;20712;-75
2024/01/27 09:18:14;;;;;;;29.45;11.00;;;3.70;69.80;;;;;;5094670;28;20452;-75
2024/01/27 09:20:40;;;;;;;26.25;8.88;;;3.80;69.10;;;;;;5094330;28;20663;-77
2024/01/27 09:23:06;;;;;;;29.43;9.60;;;3.80;68.60;;;;;;5094126;28;20416;-75
2024/01/27 09:25:31;;;;;;;32.13;9.73;;;3.90;67.40;;;;;;5094221;28;20768;-77
2024/01/27 09:28:00;;;;;;;27.67;8.77;;;4.00;66.90;;;;;;5094250;28;20378;-76
2024/01/27 09:30:26;;;;;;;27.52;7.72;;;4.10;66.60;;;;;;5094214;28;20416;-75
2024/01/27 09:32:51;;;;;;;30.27;7.40;;;4.30;65.00;;;;;;5094200;28;20409;-76
2024/01/27 09:35:17;;;;;;;26.15;8.02;;;4.60;60.70;;;;;;5094112;28;20382;-76
2024/01/27 09:37:44;;;;;;;15.20;7.07;;;4.80;58.80;;;;;;5095996;28;20396;-75
2024/01/27 09:40:10;;;;;;;17.67;8.00;;;4.70;57.70;;;;;;5092213;28;20497;-75
2024/01/27 09:42:39;;;;;;;31.88;8.90;;;4.70;60.70;;;;;;5093786;28;20499;-75
2024/01/27 09:45:05;;;;;;;21.27;7.45;;;4.90;57.80;;;;;;5093824;28;20441;-75
2024/01/27 09:47:31;;;;;;;26.35;8.80;;;4.70;58.10;;;;;;5093875;28;20378;-77
2024/01/27 09:49:57;;;;;;;24.77;8.80;;;4.80;58.80;;;;;;5093401;28;20868;-76
2024/01/27 09:52:24;;;;;;;23.70;7.70;;;4.80;58.60;;;;;;5093540;28;20400;-74
2024/01/27 09:54:49;;;;;;;23.15;8.20;;;4.80;58.50;;;;;;5093807;28;20412;-75
2024/01/27 09:57:15;;;;;;;20.57;7.60;;;5.00;57.40;;;;;;5093677;28;20397;-76
2024/01/27 09:59:44;;;;;;;28.90;9.43;;;5.10;57.40;;;;;;5092494;28;20390;-75
2024/01/27 10:02:11;;;;;;;24.13;7.80;;;5.30;58.30;;;;;;5092018;28;20452;-75
2024/01/27 10:04:41;;;;;;;22.92;7.20;;;5.30;56.60;;;;;;5093658;28;20472;-76
2024/01/27 10:07:06;;;;;;;22.33;7.40;;;5.40;54.20;;;;;;5094982;28;20382;-75
2024/01/27 10:09:32;;;;;;;26.30;7.43;;;5.40;53.40;;;;;;5110319;28;20786;-74
2024/01/27 10:12:00;;;;;;;23.23;7.30;;;5.40;53.60;;;;;;5096508;28;20420;-75
2024/01/27 10:14:37;;;;;;;26.80;6.78;;;5.60;53.20;;;;;;5114340;28;20376;-76
2024/01/27 10:17:02;;;;;;;18.70;7.43;;;5.80;50.90;;;;;;5114031;28;20480;-74
2024/01/27 10:19:28;;;;;;;21.73;6.70;;;5.80;49.30;;;;;;5114143;28;20376;-72
2024/01/27 10:22:02;;;;;;;21.03;7.27;;;5.70;50.20;;;;;;5095775;28;20380;-72
2024/01/27 10:24:27;;;;;;;25.25;6.97;;;5.70;50.70;;;;;;5114192;28;20886;-72
2024/01/27 10:27:01;;;;;;;20.25;6.00;;;5.80;50.90;;;;;;5113970;28;20705;-73
2024/01/27 10:29:27;;;;;;;19.30;6.60;;;5.90;50.50;;;;;;5113401;28;20369;-72
2024/01/27 10:31:53;;;;;;;28.85;8.52;;;6.00;49.30;;;;;;5112839;28;20451;-73
2024/01/27 10:34:22;;;;;;;27.50;7.40;;;6.00;49.50;;;;;;5113561;28;20519;-72
2024/01/27 10:36:47;;;;;;;27.50;7.50;;;6.10;49.00;;;;;;5091134;28;20378;-73
2024/01/27 10:39:17;;;;;;;26.40;7.55;;;6.30;47.50;;;;;;5103434;28;20746;-73
2024/01/27 10:41:45;;;;;;;28.13;7.20;;;6.20;47.60;;;;;;5097488;28;20410;-73
2024/01/27 10:44:14;;;;;;;22.73;6.80;;;6.40;46.90;;;;;;5104261;28;20471;-72
2024/01/27 10:46:43;;;;;;;23.20;6.90;;;6.40;46.70;;;;;;5110182;28;20800;-72
2024/01/27 10:49:13;;;;;;;20.83;6.10;;;6.40;47.40;;;;;;5089931;28;20381;-73
2024/01/27 10:51:46;;;;;;;25.48;7.75;;;6.60;46.10;;;;;;5090865;28;20395;-73
2024/01/27 10:54:18;;;;;;;23.70;6.90;;;6.70;46.50;;;;;;5091916;28;21105;-74
2024/01/27 10:56:45;;;;;;;21.80;6.43;;;6.80;45.60;;;;;;5108327;28;20492;-72
2024/01/27 10:59:13;;;;;;;22.75;6.20;;;6.90;45.00;;;;;;5108755;28;20407;-72
2024/01/27 11:01:41;;;;;;;20.02;6.78;;;7.00;44.60;;;;;;5102243;28;20401;-72
2024/01/27 11:04:09;;;;;;;25.73;7.07;;;6.90;44.70;;;;;;5090049;28;20382;-72
2024/01/27 11:06:35;;;;;;;20.88;6.75;;;7.00;44.20;;;;;;5090938;28;20374;-72
2024/01/27 11:09:04;;;;;;;24.90;7.05;;;7.10;44.10;;;;;;5099267;28;20384;-72
2024/01/27 11:11:31;;;;;;;26.67;7.88;;;7.10;44.20;;;;;;5099890;28;20931;-72
2024/01/27 11:13:57;;;;;;;21.25;6.60;;;7.10;43.80;;;;;;5107586;28;20388;-71
2024/01/27 11:16:23;;;;;;;28.77;6.95;;;7.20;43.30;;;;;;5099987;28;20465;-74
2024/01/27 11:18:49;;;;;;;23.30;6.43;;;7.30;42.70;;;;;;5109913;28;20770;-73
2024/01/27 11:21:16;;;;;;;23.48;6.43;;;7.40;41.70;;;;;;5092493;28;20413;-73
2024/01/27 11:23:43;;;;;;;18.02;5.90;;;7.30;42.00;;;;;;5089783;28;20376;-72
2024/01/27 11:26:10;;;;;;;22.20;6.50;;;7.30;42.50;;;;;;5089998;28;20378;-71
2024/01/27 11:28:36;;;;;;;23.77;6.38;;;7.30;42.50;;;;;;5089539;28;20390;-72
2024/01/27 11:31:06;;;;;;;21.63;7.55;;;7.30;42.80;;;;;;5092891;28;20404;-74
2024/01/27 11:33:32;;;;;;;24.83;7.38;;;7.20;42.70;;;;;;5109838;28;20409;-72
2024/01/27 11:36:06;;;;;;;32.72;7.22;;;7.20;42.60;;;;;;5109730;28;20785;-72
2024/01/27 11:38:33;;;;;;;25.83;6.90;;;7.10;43.20;;;;;;5108927;28;20388;-72
2024/01/27 11:41:00;;;;;;;27.42;7.22;;;7.20;44.20;;;;;;5095756;28;20404;-73
2024/01/27 11:43:26;;;;;;;20.70;5.90;;;7.40;41.90;;;;;;5092273;28;20886;-73
2024/01/27 11:45:58;;;;;;;18.07;5.77;;;7.50;41.70;;;;;;5102840;28;20420;-73
2024/01/27 11:48:23;;;;;;;18.75;5.50;;;7.40;42.50;;;;;;5101900;28;20388;-72
2024/01/27 11:50:59;;;;;;;19.10;6.60;;;7.50;41.50;;;;;;5104940;28;20376;-72
2024/01/27 11:53:25;;;;;;;20.33;6.57;;;7.50;41.10;;;;;;5103195;28;20635;-72
2024/01/27 11:55:56;;;;;;;20.17;6.40;;;7.60;41.60;;;;;;5088452;28;20378;-73
2024/01/27 11:58:22;;;;;;;21.65;6.38;;;7.50;41.60;;;;;;5089210;28;20741;-74
2024/01/27 12:00:48;;;;;;;25.15;6.88;;;7.50;41.10;;;;;;5101029;28;20400;-75
2024/01/27 12:03:13;;;;;;;27.57;5.90;;;7.50;41.60;;;;;;5102763;28;20778;-75
2024/01/27 12:05:39;;;;;;;24.60;6.10;;;7.60;41.30;;;;;;5095068;28;20439;-75
2024/01/27 12:08:08;;;;;;;26.20;6.40;;;7.70;40.60;;;;;;5088403;28;20382;-75
2024/01/27 12:10:33;;;;;;;25.88;6.70;;;7.80;41.30;;;;;;5108033;28;20392;-76
2024/01/27 12:13:00;;;;;;;21.20;6.10;;;7.90;40.30;;;;;;5109385;28;20709;-74
2024/01/27 12:15:26;;;;;;;23.73;6.33;;;7.80;39.90;;;;;;5109292;28;20420;-75
2024/01/27 12:17:52;;;;;;;22.15;6.00;;;8.00;39.40;;;;;;5101808;28;20388;-75
2024/01/27 12:20:17;;;;;;;25.83;6.30;;;8.00;39.30;;;;;;5088788;28;20402;-74
2024/01/27 12:22:43;;;;;;;25.30;7.30;;;8.00;39.70;;;;;;5088763;28;20435;-75
2024/01/27 12:25:15;;;;;;;23.90;6.60;;;8.10;40.00;;;;;;5107118;28;20399;-75
2024/01/27 12:27:41;;;;;;;25.63;6.80;;;8.10;39.00;;;;;;5108896;28;20410;-75
2024/01/27 12:30:07;;;;;;;25.05;7.00;;;8.00;39.40;;;;;;5109006;28;20388;-75
2024/01/27 12:32:33;;;;;;;21.23;6.70;;;8.00;39.70;;;;;;5110480;28;20732;-74
2024/01/27 12:35:04;;;;;;;20.98;6.68;;;8.00;39.80;;;;;;5101588;28;20472;-74
2024/01/27 12:37:29;;;;;;;26.50;6.30;;;8.10;39.00;;;;;;5098824;28;20770;-74
2024/01/27 12:39:55;;;;;;;27.77;6.90;;;8.20;39.30;;;;;;5103511;28;20416;-75